Flight Track Log - Related Links

Times and Time Zones

All times are in EDT time to prevent confusion due to time zone crossing. See the N820JA flight status page for this flight to view local times or setup timezone preferences in your user account.

Time Position Orientation Groundspeed Altitude Reporting Facility
EDT Latitude Longitude Course Direction KTS MPH feet Rate Location/Type
Tue 03:11:15 PM 35.2931 -77.7881 172° South 114 131 2,400  Level Washington Center
Tue 03:12:21 PM 35.2597 -77.7822 171° South 110 127 2,500  Climbing Washington Center
Tue 03:13:28 PM 35.2286 -77.7761 203° Southwest 102 117 2,400 94 Descending Washington Center
Tue 03:14:28 PM 35.2053 -77.7883 207° Southwest 93 107 2,700  Climbing Washington Center
Tue 03:15:23 PM 35.1822 -77.8028 212° Southwest 99 114 2,400 -52 Descending Washington Center
Tue 03:16:23 PM 35.1567 -77.8225 215° Southwest 104 120 2,600 -50 Climbing Washington Center
Tue 03:17:23 PM 35.1333 -77.8422 216° Southwest 102 117 2,300 -209 Descending Washington Center
Tue 03:18:18 PM 35.1142 -77.8594 217° Southwest 97 112 2,200 -52 Descending Washington Center
Tue 03:19:18 PM 35.0953 -77.8767 208° Southwest 90 104 2,200 99 Level Washington Center
Tue 03:20:19 PM 35.0697 -77.8936 201° Southwest 97 112 2,400 155 Climbing Washington Center
Tue 03:21:14 PM 35.0444 -77.9056 215° Southwest 105 121 2,500 50 Climbing Washington Center
Tue 03:22:20 PM 35.0211 -77.9253 218° Southwest 98 113 2,500  Level Washington Center
Tue 03:23:21 PM 34.9978 -77.9475 237° Southwest 96 110 2,500 -155 Level Washington Center
Tue 03:24:16 PM 34.9869 -77.9675 215° Southwest 92 106 2,200 -149 Descending Washington Center
Tue 03:25:22 PM 34.9617 -77.9894 223° Southwest 93 107 2,200  Level Washington Center
Tue 03:33:15 PM 34.7504 -78.2291 221° Southwest  Level FlightAware Approximate
Tue 03:34:15 PM 34.7226 -78.2585 221° Southwest  Level FlightAware Approximate
Tue 03:35:15 PM 34.6949 -78.2879 221° Southwest  Level FlightAware Approximate
Tue 03:36:15 PM 34.6671 -78.3174 221° Southwest  Level FlightAware Approximate
Tue 03:37:15 PM 34.6393 -78.3467 221° Southwest  Level FlightAware Approximate
Tue 03:38:15 PM 34.6116 -78.3761 221° Southwest  Level FlightAware Approximate
Tue 03:39:15 PM 34.5838 -78.4054 221° Southwest  Level FlightAware Approximate
Tue 03:40:15 PM 34.5560 -78.4348 221° Southwest  Level FlightAware Approximate
Tue 03:41:15 PM 34.5282 -78.4641 221° Southwest  Level FlightAware Approximate
Tue 03:42:15 PM 34.5004 -78.4934 221° Southwest  Level FlightAware Approximate
Tue 03:43:15 PM 34.4726 -78.5226 221° Southwest  Level FlightAware Approximate
Tue 03:44:15 PM 34.4448 -78.5519 221° Southwest  Level FlightAware Approximate
Tue 03:45:15 PM 34.4170 -78.5811 221° Southwest  Level FlightAware Approximate
Tue 03:46:15 PM 34.3891 -78.6103 220° Southwest  Level FlightAware Approximate
Tue 03:47:15 PM 34.3610 -78.6392 221° Southwest  Level FlightAware Approximate
Tue 03:48:15 PM 34.3332 -78.6683 221° Southwest  Level FlightAware Approximate
Tue 03:49:15 PM 34.3054 -78.6975 221° Southwest  Level FlightAware Approximate
Tue 03:50:15 PM 34.2775 -78.7266 221° Southwest  Level FlightAware Approximate
Tue 03:51:15 PM 34.2496 -78.7557 221° Southwest  Level FlightAware Approximate
Tue 03:52:15 PM 34.2218 -78.7848 221° Southwest  Level FlightAware Approximate
Tue 03:53:15 PM 34.1939 -78.8139 221° Southwest  Level FlightAware Approximate
Tue 03:54:15 PM 34.1660 -78.8430 221° Southwest  Level FlightAware Approximate
Tue 03:55:15 PM 34.1381 -78.8720 221° Southwest  Level FlightAware Approximate
Tue 03:56:15 PM 34.1102 -78.9010 221° Southwest  Level FlightAware Approximate
Tue 03:57:15 PM 34.0824 -78.9300 221° Southwest  Level FlightAware Approximate
Tue 03:58:15 PM 34.0544 -78.9590 221° Southwest  Level FlightAware Approximate
Tue 03:59:15 PM 34.0265 -78.9880 221° Southwest  Level FlightAware Approximate
Tue 04:00:15 PM 33.9986 -79.0169 221° Southwest  Level FlightAware Approximate
Tue 04:01:15 PM 33.9707 -79.0458 221° Southwest  Level FlightAware Approximate
Tue 04:02:15 PM 33.9427 -79.0747 221° Southwest  Level FlightAware Approximate
Tue 04:03:15 PM 33.9148 -79.1036 221° Southwest  Level FlightAware Approximate
Tue 04:04:15 PM 33.8869 -79.1325 221° Southwest  Level FlightAware Approximate
Tue 04:05:15 PM 33.8589 -79.1613 221° Southwest  Level FlightAware Approximate
Tue 04:06:15 PM 33.8310 -79.1902 221° Southwest  Level FlightAware Approximate
Tue 04:07:15 PM 33.8030 -79.2190 221° Southwest  Level FlightAware Approximate
Tue 04:08:15 PM 33.7750 -79.2478 221° Southwest  Level FlightAware Approximate
Tue 04:09:15 PM 33.7470 -79.2766 221° Southwest  Level FlightAware Approximate
Tue 04:10:15 PM 33.7190 -79.3053 221° Southwest  Level FlightAware Approximate
Tue 04:11:15 PM 33.6910 -79.3341 220° Southwest  Level FlightAware Approximate
Tue 04:12:15 PM 33.6630 -79.3628 220° Southwest  Level FlightAware Approximate
Tue 04:13:15 PM 33.6350 -79.3915 220° Southwest  Level FlightAware Approximate
Tue 04:14:15 PM 33.6070 -79.4202 220° Southwest  Level FlightAware Approximate
Tue 04:15:15 PM 33.5790 -79.4488 220° Southwest  Level FlightAware Approximate
Tue 04:16:15 PM 33.5510 -79.4774 220° Southwest  Level FlightAware Approximate
Tue 04:17:15 PM 33.5229 -79.5061 220° Southwest  Level FlightAware Approximate
Tue 04:18:15 PM 33.4949 -79.5347 220° Southwest  Level FlightAware Approximate
Tue 04:19:15 PM 33.4668 -79.5633 220° Southwest  Level FlightAware Approximate
Tue 04:20:15 PM 33.4388 -79.5918 220° Southwest  Level FlightAware Approximate
Tue 04:21:15 PM 33.4107 -79.6204 205° Southwest  Level FlightAware Approximate
Tue 04:22:15 PM 33.3778 -79.6391 221° Southwest  Level FlightAware Approximate
Tue 04:23:15 PM 33.3499 -79.6679 221° Southwest  Level FlightAware Approximate
Tue 04:24:15 PM 33.3220 -79.6967 221° Southwest  Level FlightAware Approximate
Tue 04:25:15 PM 33.2941 -79.7254 221° Southwest  Level FlightAware Approximate
Tue 04:26:15 PM 33.2662 -79.7541 221° Southwest  Level FlightAware Approximate
Tue 04:27:15 PM 33.2383 -79.7828 221° Southwest  Level FlightAware Approximate
Tue 04:28:15 PM 33.2104 -79.8115 221° Southwest  Level FlightAware Approximate
Tue 04:29:15 PM 33.1825 -79.8402 221° Southwest  Level FlightAware Approximate
Tue 04:30:15 PM 33.1545 -79.8688 221° Southwest  Level FlightAware Approximate
Tue 04:31:15 PM 33.1266 -79.8975 221° Southwest  Level FlightAware Approximate
Tue 04:32:15 PM 33.0987 -79.9261 221° Southwest  Level FlightAware Approximate
Tue 04:33:15 PM 33.0707 -79.9547 221° Southwest  Level FlightAware Approximate
Tue 04:34:15 PM 33.0428 -79.9833 221° Southwest  Level FlightAware Approximate
Tue 04:35:15 PM 33.0148 -80.0118 221° Southwest  Level FlightAware Approximate
Tue 04:36:15 PM 32.9868 -80.0404 226° Southwest  Level FlightAware Approximate
Tue 04:37:15 PM 32.9619 -80.0715 220° Southwest  Level FlightAware Approximate
Tue 04:38:15 PM 32.9338 -80.0998 220° Southwest  Level FlightAware Approximate
Tue 04:39:15 PM 32.9057 -80.1281 220° Southwest  Level FlightAware Approximate
Tue 04:40:15 PM 32.8776 -80.1564 220° Southwest  Level FlightAware Approximate
Tue 04:41:15 PM 32.8494 -80.1847 220° Southwest  Level FlightAware Approximate
Tue 04:42:15 PM 32.8213 -80.2129 220° Southwest  Level FlightAware Approximate
Tue 04:43:15 PM 32.7931 -80.2411 220° Southwest  Level FlightAware Approximate
Tue 04:44:15 PM 32.7650 -80.2693 220° Southwest  Level FlightAware Approximate
Tue 04:45:15 PM 32.7368 -80.2975 220° Southwest  Level FlightAware Approximate
Tue 04:46:15 PM 32.7086 -80.3257 220° Southwest  Level FlightAware Approximate
Tue 04:47:15 PM 32.6805 -80.3538 220° Southwest  Level FlightAware Approximate
Tue 04:48:15 PM 32.6523 -80.3820 220° Southwest  Level FlightAware Approximate
Tue 04:49:15 PM 32.6241 -80.4101 220° Southwest  Level FlightAware Approximate
Tue 04:50:15 PM 32.5959 -80.4382 219° Southwest  Level FlightAware Approximate
Tue 04:51:15 PM 32.5674 -80.4659 220° Southwest  Level FlightAware Approximate
Tue 04:52:15 PM 32.5393 -80.4941 220° Southwest  Level FlightAware Approximate
Tue 04:53:15 PM 32.5112 -80.5222 220° Southwest  Level FlightAware Approximate
Tue 04:54:15 PM 32.4830 -80.5503 220° Southwest  Level FlightAware Approximate
Tue 04:55:15 PM 32.4549 -80.5785 228° Southwest  Level FlightAware Approximate
Tue 04:56:15 PM 32.4302 -80.6108 40° Northeast  Level Estimated
Tue 04:57:15 PM 33.0129 -80.0194 220° Southwest  Level FlightAware Approximate
Tue 04:58:15 PM 32.9848 -80.0478 220° Southwest  Level FlightAware Approximate
Tue 04:59:15 PM 32.9567 -80.0761 220° Southwest  Level FlightAware Approximate
Tue 05:00:15 PM 32.9286 -80.1045 220° Southwest  Level FlightAware Approximate
Tue 05:01:15 PM 32.9005 -80.1328 220° Southwest  Level FlightAware Approximate
Tue 05:02:15 PM 32.8723 -80.1611 220° Southwest  Level FlightAware Approximate
Tue 05:03:15 PM 32.8442 -80.1894 220° Southwest  Level FlightAware Approximate
Tue 05:04:15 PM 32.8161 -80.2176 220° Southwest  Level FlightAware Approximate
Tue 05:05:15 PM 32.7879 -80.2459 220° Southwest  Level FlightAware Approximate
Tue 05:06:15 PM 32.7598 -80.2741 220° Southwest  Level FlightAware Approximate
Tue 05:07:15 PM 32.7317 -80.3023 220° Southwest  Level FlightAware Approximate
Tue 05:08:15 PM 32.7035 -80.3305 220° Southwest  Level FlightAware Approximate
Tue 05:09:15 PM 32.6753 -80.3587 220° Southwest  Level FlightAware Approximate
Tue 05:10:15 PM 32.6472 -80.3868 220° Southwest  Level FlightAware Approximate
Tue 05:11:15 PM 32.6190 -80.4150 220° Southwest  Level FlightAware Approximate
Tue 05:12:15 PM 32.5908 -80.4431 220° Southwest  Level FlightAware Approximate
Tue 05:13:15 PM 32.5626 -80.4712 220° Southwest  Level FlightAware Approximate
Tue 05:14:15 PM 32.5344 -80.4993 220° Southwest  Level FlightAware Approximate
Tue 05:15:15 PM 32.5062 -80.5273 220° Southwest  Level FlightAware Approximate
Tue 05:16:15 PM 32.4780 -80.5554 220° Southwest  Level FlightAware Approximate
Tue 05:17:15 PM 32.4499 -80.5835 220° Southwest  Level FlightAware Approximate

Login

Don't have an account? Register now (free) for customized features, flight alerts, and more!